sensor_id;sensor_type;location;lat;lon;timestamp;temperature;humidity
22680;DHT22;11507;44.858;10.374;2023-04-16T00:00:07;6.30;99.90
22680;DHT22;11507;44.858;10.374;2023-04-16T00:02:38;6.40;99.90
22680;DHT22;11507;44.858;10.374;2023-04-16T00:05:05;6.40;99.90
22680;DHT22;11507;44.858;10.374;2023-04-16T00:07:31;6.40;99.90
22680;DHT22;11507;44.858;10.374;2023-04-16T00:09:57;6.40;99.90
22680;DHT22;11507;44.858;10.374;2023-04-16T00:12:22;6.30;99.90
22680;DHT22;11507;44.858;10.374;2023-04-16T00:14:48;6.20;99.90
22680;DHT22;11507;44.858;10.374;2023-04-16T00:17:15;6.10;99.90
22680;DHT22;11507;44.858;10.374;2023-04-16T00:19:41;6.10;99.90
22680;DHT22;11507;44.858;10.374;2023-04-16T00:22:06;6.00;99.90
22680;DHT22;11507;44.858;10.374;2023-04-16T00:24:33;5.90;99.90
22680;DHT22;11507;44.858;10.374;2023-04-16T00:26:59;5.80;99.90
22680;DHT22;11507;44.858;10.374;2023-04-16T00:29:26;5.80;99.90
22680;DHT22;11507;44.858;10.374;2023-04-16T00:31:53;5.90;99.90
22680;DHT22;11507;44.858;10.374;2023-04-16T00:34:19;5.90;99.90
22680;DHT22;11507;44.858;10.374;2023-04-16T00:36:44;5.90;99.90
22680;DHT22;11507;44.858;10.374;2023-04-16T00:39:10;5.90;99.90
22680;DHT22;11507;44.858;10.374;2023-04-16T00:41:36;6.00;99.90
22680;DHT22;11507;44.858;10.374;2023-04-16T00:44:02;6.00;99.90
22680;DHT22;11507;44.858;10.374;2023-04-16T00:46:28;6.00;99.90
22680;DHT22;11507;44.858;10.374;2023-04-16T00:48:53;6.00;99.90
22680;DHT22;11507;44.858;10.374;2023-04-16T00:51:19;6.00;99.90
22680;DHT22;11507;44.858;10.374;2023-04-16T00:53:46;6.00;99.90
22680;DHT22;11507;44.858;10.374;2023-04-16T00:56:12;6.20;99.90
22680;DHT22;11507;44.858;10.374;2023-04-16T00:58:37;6.20;99.90
22680;DHT22;11507;44.858;10.374;2023-04-16T01:01:03;6.10;99.90
22680;DHT22;11507;44.858;10.374;2023-04-16T01:03:39;6.10;99.90
22680;DHT22;11507;44.858;10.374;2023-04-16T01:06:06;6.10;99.90
22680;DHT22;11507;44.858;10.374;2023-04-16T01:08:33;6.10;99.90
22680;DHT22;11507;44.858;10.374;2023-04-16T01:10:58;6.00;99.90
22680;DHT22;11507;44.858;10.374;2023-04-16T01:13:24;6.00;99.90
22680;DHT22;11507;44.858;10.374;2023-04-16T01:15:50;6.00;99.90
22680;DHT22;11507;44.858;10.374;2023-04-16T01:18:16;6.00;99.90
22680;DHT22;11507;44.858;10.374;2023-04-16T01:20:43;6.10;99.90
22680;DHT22;11507;44.858;10.374;2023-04-16T01:23:09;6.10;99.90
22680;DHT22;11507;44.858;10.374;2023-04-16T01:25:36;6.10;99.90
22680;DHT22;11507;44.858;10.374;2023-04-16T01:28:02;6.10;99.90
22680;DHT22;11507;44.858;10.374;2023-04-16T01:30:28;6.20;99.90
22680;DHT22;11507;44.858;10.374;2023-04-16T01:33:03;6.20;99.90
22680;DHT22;11507;44.858;10.374;2023-04-16T01:35:30;6.20;99.90
22680;DHT22;11507;44.858;10.374;2023-04-16T01:37:56;6.20;99.90
22680;DHT22;11507;44.858;10.374;2023-04-16T01:40:23;6.10;99.90
22680;DHT22;11507;44.858;10.374;2023-04-16T01:42:48;6.20;99.90
22680;DHT22;11507;44.858;10.374;2023-04-16T01:45:15;6.20;99.90
22680;DHT22;11507;44.858;10.374;2023-04-16T01:47:41;6.10;99.90
22680;DHT22;11507;44.858;10.374;2023-04-16T01:50:09;6.00;99.90
22680;DHT22;11507;44.858;10.374;2023-04-16T01:52:34;5.90;99.90
22680;DHT22;11507;44.858;10.374;2023-04-16T01:55:02;5.80;99.90
22680;DHT22;11507;44.858;10.374;2023-04-16T01:57:28;5.80;99.90
22680;DHT22;11507;44.858;10.374;2023-04-16T01:59:55;5.80;99.90
22680;DHT22;11507;44.858;10.374;2023-04-16T02:02:21;5.80;99.90
22680;DHT22;11507;44.858;10.374;2023-04-16T02:04:54;5.70;99.90
22680;DHT22;11507;44.858;10.374;2023-04-16T02:07:20;5.60;99.90
22680;DHT22;11507;44.858;10.374;2023-04-16T02:09:46;5.50;99.90
22680;DHT22;11507;44.858;10.374;2023-04-16T02:12:14;5.50;99.90
22680;DHT22;11507;44.858;10.374;2023-04-16T02:14:40;5.40;99.90
22680;DHT22;11507;44.858;10.374;2023-04-16T02:17:06;5.40;99.90
22680;DHT22;11507;44.858;10.374;2023-04-16T02:19:40;5.40;99.90
22680;DHT22;11507;44.858;10.374;2023-04-16T02:22:07;5.40;99.90
22680;DHT22;11507;44.858;10.374;2023-04-16T02:24:33;5.30;99.90
22680;DHT22;11507;44.858;10.374;2023-04-16T02:27:03;5.30;99.90
22680;DHT22;11507;44.858;10.374;2023-04-16T02:29:30;5.30;99.90
22680;DHT22;11507;44.858;10.374;2023-04-16T02:32:04;5.30;99.90
22680;DHT22;11507;44.858;10.374;2023-04-16T02:34:31;5.30;99.90
22680;DHT22;11507;44.858;10.374;2023-04-16T02:36:59;5.30;99.90
22680;DHT22;11507;44.858;10.374;2023-04-16T02:39:25;5.30;99.90
22680;DHT22;11507;44.858;10.374;2023-04-16T02:41:53;5.20;99.90
22680;DHT22;11507;44.858;10.374;2023-04-16T02:44:20;5.20;99.90
22680;DHT22;11507;44.858;10.374;2023-04-16T02:46:46;5.10;99.90
22680;DHT22;11507;44.858;10.374;2023-04-16T02:49:13;5.00;99.90
22680;DHT22;11507;44.858;10.374;2023-04-16T02:51:40;5.00;99.90
22680;DHT22;11507;44.858;10.374;2023-04-16T02:54:05;5.00;99.90
22680;DHT22;11507;44.858;10.374;2023-04-16T02:56:31;5.00;99.90
22680;DHT22;11507;44.858;10.374;2023-04-16T02:58:57;4.90;99.90
22680;DHT22;11507;44.858;10.374;2023-04-16T03:01:24;4.90;99.90
22680;DHT22;11507;44.858;10.374;2023-04-16T03:03:50;4.80;99.90
22680;DHT22;11507;44.858;10.374;2023-04-16T03:06:16;4.80;99.90
22680;DHT22;11507;44.858;10.374;2023-04-16T03:08:42;4.70;99.90
22680;DHT22;11507;44.858;10.374;2023-04-16T03:11:07;4.70;99.90
22680;DHT22;11507;44.858;10.374;2023-04-16T03:13:33;4.60;99.90
22680;DHT22;11507;44.858;10.374;2023-04-16T03:15:59;4.50;99.90
22680;DHT22;11507;44.858;10.374;2023-04-16T03:18:25;4.40;99.90
22680;DHT22;11507;44.858;10.374;2023-04-16T03:20:51;4.40;99.90
22680;DHT22;11507;44.858;10.374;2023-04-16T03:23:17;4.30;99.90
22680;DHT22;11507;44.858;10.374;2023-04-16T03:25:43;4.30;99.90
22680;DHT22;11507;44.858;10.374;2023-04-16T03:28:11;4.20;99.90
22680;DHT22;11507;44.858;10.374;2023-04-16T03:30:37;4.20;99.90
22680;DHT22;11507;44.858;10.374;2023-04-16T03:33:05;4.30;99.90
22680;DHT22;11507;44.858;10.374;2023-04-16T03:35:31;4.30;99.90
22680;DHT22;11507;44.858;10.374;2023-04-16T03:37:56;4.30;99.90
22680;DHT22;11507;44.858;10.374;2023-04-16T03:40:24;4.30;99.90
22680;DHT22;11507;44.858;10.374;2023-04-16T03:42:52;4.30;99.90
22680;DHT22;11507;44.858;10.374;2023-04-16T03:45:19;4.30;99.90
22680;DHT22;11507;44.858;10.374;2023-04-16T03:47:47;4.20;99.90
22680;DHT22;11507;44.858;10.374;2023-04-16T03:50:18;4.30;99.90
22680;DHT22;11507;44.858;10.374;2023-04-16T03:52:44;4.30;99.90
22680;DHT22;11507;44.858;10.374;2023-04-16T03:55:13;4.30;99.90
22680;DHT22;11507;44.858;10.374;2023-04-16T03:57:39;4.40;99.90
22680;DHT22;11507;44.858;10.374;2023-04-16T04:00:09;4.40;99.90
22680;DHT22;11507;44.858;10.374;2023-04-16T04:02:55;4.40;99.90
22680;DHT22;11507;44.858;10.374;2023-04-16T04:05:22;4.40;99.90
22680;DHT22;11507;44.858;10.374;2023-04-16T04:07:48;4.40;99.90
22680;DHT22;11507;44.858;10.374;2023-04-16T04:10:14;4.40;99.90
22680;DHT22;11507;44.858;10.374;2023-04-16T04:12:41;4.30;99.90
22680;DHT22;11507;44.858;10.374;2023-04-16T04:15:07;4.30;99.90
22680;DHT22;11507;44.858;10.374;2023-04-16T04:17:33;4.30;99.90
22680;DHT22;11507;44.858;10.374;2023-04-16T04:20:00;4.30;99.90
22680;DHT22;11507;44.858;10.374;2023-04-16T04:22:26;4.30;99.90
22680;DHT22;11507;44.858;10.374;2023-04-16T04:24:52;4.30;99.90
22680;DHT22;11507;44.858;10.374;2023-04-16T04:27:17;4.30;99.90
22680;DHT22;11507;44.858;10.374;2023-04-16T04:29:45;4.20;99.90
22680;DHT22;11507;44.858;10.374;2023-04-16T04:32:11;4.10;99.90
22680;DHT22;11507;44.858;10.374;2023-04-16T04:34:36;4.10;99.90
22680;DHT22;11507;44.858;10.374;2023-04-16T04:37:04;4.00;99.90
22680;DHT22;11507;44.858;10.374;2023-04-16T04:39:29;3.90;99.90
22680;DHT22;11507;44.858;10.374;2023-04-16T04:41:56;3.90;99.90
22680;DHT22;11507;44.858;10.374;2023-04-16T04:44:21;3.90;99.90
22680;DHT22;11507;44.858;10.374;2023-04-16T04:46:47;4.00;99.90
22680;DHT22;11507;44.858;10.374;2023-04-16T04:49:13;4.00;99.90
22680;DHT22;11507;44.858;10.374;2023-04-16T04:51:38;4.10;99.90
22680;DHT22;11507;44.858;10.374;2023-04-16T04:54:04;4.10;99.90
22680;DHT22;11507;44.858;10.374;2023-04-16T04:56:33;4.10;99.90
22680;DHT22;11507;44.858;10.374;2023-04-16T04:58:59;4.10;99.90
22680;DHT22;11507;44.858;10.374;2023-04-16T05:01:25;4.20;99.90
22680;DHT22;11507;44.858;10.374;2023-04-16T05:03:50;4.20;99.90
22680;DHT22;11507;44.858;10.374;2023-04-16T05:06:17;4.20;99.90
22680;DHT22;11507;44.858;10.374;2023-04-16T05:08:42;4.20;99.90
22680;DHT22;11507;44.858;10.374;2023-04-16T05:11:09;4.20;99.90
22680;DHT22;11507;44.858;10.374;2023-04-16T05:13:35;4.30;99.90
22680;DHT22;11507;44.858;10.374;2023-04-16T05:16:00;4.40;99.90
22680;DHT22;11507;44.858;10.374;2023-04-16T05:18:26;4.50;99.90
22680;DHT22;11507;44.858;10.374;2023-04-16T05:20:52;4.70;99.90
22680;DHT22;11507;44.858;10.374;2023-04-16T05:23:18;4.80;99.90
22680;DHT22;11507;44.858;10.374;2023-04-16T05:25:43;4.90;99.90
22680;DHT22;11507;44.858;10.374;2023-04-16T05:28:09;5.00;99.90
22680;DHT22;11507;44.858;10.374;2023-04-16T05:30:35;5.10;99.90
22680;DHT22;11507;44.858;10.374;2023-04-16T05:33:00;5.30;99.90
22680;DHT22;11507;44.858;10.374;2023-04-16T05:35:26;5.40;99.90
22680;DHT22;11507;44.858;10.374;2023-04-16T05:37:53;5.60;99.90
22680;DHT22;11507;44.858;10.374;2023-04-16T05:40:19;5.80;99.90
22680;DHT22;11507;44.858;10.374;2023-04-16T05:42:45;5.90;99.90
22680;DHT22;11507;44.858;10.374;2023-04-16T05:45:11;6.20;99.90
22680;DHT22;11507;44.858;10.374;2023-04-16T05:47:36;6.40;99.90
22680;DHT22;11507;44.858;10.374;2023-04-16T05:50:02;6.60;99.90
22680;DHT22;11507;44.858;10.374;2023-04-16T05:52:28;6.80;99.90
22680;DHT22;11507;44.858;10.374;2023-04-16T05:54:56;7.20;99.90
22680;DHT22;11507;44.858;10.374;2023-04-16T05:57:22;7.40;99.90
22680;DHT22;11507;44.858;10.374;2023-04-16T05:59:48;7.60;99.90
22680;DHT22;11507;44.858;10.374;2023-04-16T06:02:13;7.80;99.90
22680;DHT22;11507;44.858;10.374;2023-04-16T06:04:39;8.10;99.90
22680;DHT22;11507;44.858;10.374;2023-04-16T06:07:06;8.40;99.90
22680;DHT22;11507;44.858;10.374;2023-04-16T06:09:31;8.70;99.90
22680;DHT22;11507;44.858;10.374;2023-04-16T06:11:58;8.90;99.90
22680;DHT22;11507;44.858;10.374;2023-04-16T06:14:23;9.10;99.90
22680;DHT22;11507;44.858;10.374;2023-04-16T06:16:49;9.40;99.90
22680;DHT22;11507;44.858;10.374;2023-04-16T06:19:15;9.60;99.90
22680;DHT22;11507;44.858;10.374;2023-04-16T06:21:41;9.80;99.90
22680;DHT22;11507;44.858;10.374;2023-04-16T06:24:07;10.00;99.90
22680;DHT22;11507;44.858;10.374;2023-04-16T06:26:32;10.10;99.90
22680;DHT22;11507;44.858;10.374;2023-04-16T06:28:59;10.30;99.90
22680;DHT22;11507;44.858;10.374;2023-04-16T06:31:25;10.40;99.90
22680;DHT22;11507;44.858;10.374;2023-04-16T06:33:51;10.70;99.90
22680;DHT22;11507;44.858;10.374;2023-04-16T06:36:18;10.90;99.90
22680;DHT22;11507;44.858;10.374;2023-04-16T06:38:44;11.10;99.90
22680;DHT22;11507;44.858;10.374;2023-04-16T06:41:10;11.30;99.90
22680;DHT22;11507;44.858;10.374;2023-04-16T06:43:36;11.50;99.90
22680;DHT22;11507;44.858;10.374;2023-04-16T06:46:02;11.70;99.90
22680;DHT22;11507;44.858;10.374;2023-04-16T06:48:29;11.80;99.90
22680;DHT22;11507;44.858;10.374;2023-04-16T06:50:55;11.80;99.90
22680;DHT22;11507;44.858;10.374;2023-04-16T06:53:20;12.00;99.90
22680;DHT22;11507;44.858;10.374;2023-04-16T06:55:46;12.20;99.90
22680;DHT22;11507;44.858;10.374;2023-04-16T06:58:12;12.40;99.90
22680;DHT22;11507;44.858;10.374;2023-04-16T07:00:38;12.60;99.90
22680;DHT22;11507;44.858;10.374;2023-04-16T07:03:04;12.70;99.90
22680;DHT22;11507;44.858;10.374;2023-04-16T07:05:30;12.80;99.90
22680;DHT22;11507;44.858;10.374;2023-04-16T07:07:56;13.00;99.90
22680;DHT22;11507;44.858;10.374;2023-04-16T07:10:22;13.20;99.90
22680;DHT22;11507;44.858;10.374;2023-04-16T07:12:48;13.30;99.90
22680;DHT22;11507;44.858;10.374;2023-04-16T07:15:13;13.50;99.90
22680;DHT22;11507;44.858;10.374;2023-04-16T07:17:39;13.70;99.90
22680;DHT22;11507;44.858;10.374;2023-04-16T07:20:06;13.80;99.90
22680;DHT22;11507;44.858;10.374;2023-04-16T07:22:32;14.00;99.90
22680;DHT22;11507;44.858;10.374;2023-04-16T07:24:58;14.20;99.90
22680;DHT22;11507;44.858;10.374;2023-04-16T07:27:24;14.40;99.90
22680;DHT22;11507;44.858;10.374;2023-04-16T07:29:50;14.50;99.90
22680;DHT22;11507;44.858;10.374;2023-04-16T07:32:16;14.60;99.90
22680;DHT22;11507;44.858;10.374;2023-04-16T07:34:42;14.60;99.90
22680;DHT22;11507;44.858;10.374;2023-04-16T07:37:08;14.60;99.90
22680;DHT22;11507;44.858;10.374;2023-04-16T07:39:34;14.80;99.90
22680;DHT22;11507;44.858;10.374;2023-04-16T07:42:00;14.90;99.90
22680;DHT22;11507;44.858;10.374;2023-04-16T07:44:26;14.90;99.90
22680;DHT22;11507;44.858;10.374;2023-04-16T07:46:52;15.00;99.90
22680;DHT22;11507;44.858;10.374;2023-04-16T07:51:51;15.10;99.90
22680;DHT22;11507;44.858;10.374;2023-04-16T07:54:17;15.40;99.90
22680;DHT22;11507;44.858;10.374;2023-04-16T07:56:43;15.70;99.90
22680;DHT22;11507;44.858;10.374;2023-04-16T07:59:08;16.00;99.90
22680;DHT22;11507;44.858;10.374;2023-04-16T08:01:34;16.10;99.90
22680;DHT22;11507;44.858;10.374;2023-04-16T08:04:00;16.10;99.90
22680;DHT22;11507;44.858;10.374;2023-04-16T08:06:27;16.00;99.90
22680;DHT22;11507;44.858;10.374;2023-04-16T08:08:53;15.80;99.90
22680;DHT22;11507;44.858;10.374;2023-04-16T08:11:18;15.90;99.90
22680;DHT22;11507;44.858;10.374;2023-04-16T08:13:44;15.80;99.90
22680;DHT22;11507;44.858;10.374;2023-04-16T08:16:11;15.90;99.90
22680;DHT22;11507;44.858;10.374;2023-04-16T08:18:36;16.00;99.90
22680;DHT22;11507;44.858;10.374;2023-04-16T08:21:07;16.20;99.90
22680;DHT22;11507;44.858;10.374;2023-04-16T08:23:33;16.60;99.90
22680;DHT22;11507;44.858;10.374;2023-04-16T08:25:59;16.60;99.90
22680;DHT22;11507;44.858;10.374;2023-04-16T08:28:25;16.70;99.90
22680;DHT22;11507;44.858;10.374;2023-04-16T08:30:51;17.00;99.90
22680;DHT22;11507;44.858;10.374;2023-04-16T08:33:17;17.40;99.90
22680;DHT22;11507;44.858;10.374;2023-04-16T08:35:43;17.50;99.90
22680;DHT22;11507;44.858;10.374;2023-04-16T08:38:09;17.80;99.90
22680;DHT22;11507;44.858;10.374;2023-04-16T08:40:37;18.00;99.90
22680;DHT22;11507;44.858;10.374;2023-04-16T08:43:05;18.30;99.90
22680;DHT22;11507;44.858;10.374;2023-04-16T08:45:34;18.40;99.90
22680;DHT22;11507;44.858;10.374;2023-04-16T08:48:00;18.30;99.90
22680;DHT22;11507;44.858;10.374;2023-04-16T08:50:29;18.60;99.90
22680;DHT22;11507;44.858;10.374;2023-04-16T08:52:58;18.90;99.90
22680;DHT22;11507;44.858;10.374;2023-04-16T08:55:36;19.20;99.90
22680;DHT22;11507;44.858;10.374;2023-04-16T08:58:21;18.90;99.90
22680;DHT22;11507;44.858;10.374;2023-04-16T09:00:47;18.90;99.90
22680;DHT22;11507;44.858;10.374;2023-04-16T09:03:13;18.70;99.90
22680;DHT22;11507;44.858;10.374;2023-04-16T09:05:40;19.00;99.90
22680;DHT22;11507;44.858;10.374;2023-04-16T09:08:06;19.10;99.90
22680;DHT22;11507;44.858;10.374;2023-04-16T09:10:33;19.10;99.50
22680;DHT22;11507;44.858;10.374;2023-04-16T09:12:59;19.40;99.90
22680;DHT22;11507;44.858;10.374;2023-04-16T09:15:25;19.40;98.80
22680;DHT22;11507;44.858;10.374;2023-04-16T09:17:51;19.90;99.90
22680;DHT22;11507;44.858;10.374;2023-04-16T09:20:17;20.20;99.50
22680;DHT22;11507;44.858;10.374;2023-04-16T09:22:43;20.30;98.20
22680;DHT22;11507;44.858;10.374;2023-04-16T09:25:10;20.60;98.50
22680;DHT22;11507;44.858;10.374;2023-04-16T09:27:38;20.70;97.90
22680;DHT22;11507;44.858;10.374;2023-04-16T09:30:24;21.00;96.80
22680;DHT22;11507;44.858;10.374;2023-04-16T09:32:50;20.90;96.30
22680;DHT22;11507;44.858;10.374;2023-04-16T09:35:17;21.00;98.10
22680;DHT22;11507;44.858;10.374;2023-04-16T09:37:53;21.50;96.20
22680;DHT22;11507;44.858;10.374;2023-04-16T09:40:22;21.80;97.10
22680;DHT22;11507;44.858;10.374;2023-04-16T09:42:48;22.20;95.90
22680;DHT22;11507;44.858;10.374;2023-04-16T09:45:15;22.10;91.10
22680;DHT22;11507;44.858;10.374;2023-04-16T09:47:43;22.20;91.40
22680;DHT22;11507;44.858;10.374;2023-04-16T09:50:10;22.00;91.60
22680;DHT22;11507;44.858;10.374;2023-04-16T09:52:38;21.90;91.50
22680;DHT22;11507;44.858;10.374;2023-04-16T09:55:05;22.20;93.20
22680;DHT22;11507;44.858;10.374;2023-04-16T09:57:31;22.60;90.00
22680;DHT22;11507;44.858;10.374;2023-04-16T10:00:04;23.10;90.40
22680;DHT22;11507;44.858;10.374;2023-04-16T10:02:30;23.60;91.60
22680;DHT22;11507;44.858;10.374;2023-04-16T10:04:57;24.10;87.50
22680;DHT22;11507;44.858;10.374;2023-04-16T10:07:32;24.30;85.40
22680;DHT22;11507;44.858;10.374;2023-04-16T10:09:58;24.50;83.70
22680;DHT22;11507;44.858;10.374;2023-04-16T10:12:24;24.60;85.00
22680;DHT22;11507;44.858;10.374;2023-04-16T10:15:00;24.90;81.40
22680;DHT22;11507;44.858;10.374;2023-04-16T10:17:27;24.80;79.10
22680;DHT22;11507;44.858;10.374;2023-04-16T10:19:56;24.60;79.00
22680;DHT22;11507;44.858;10.374;2023-04-16T10:22:22;24.60;76.40
22680;DHT22;11507;44.858;10.374;2023-04-16T10:24:48;24.60;80.70
22680;DHT22;11507;44.858;10.374;2023-04-16T10:27:15;24.70;74.60
22680;DHT22;11507;44.858;10.374;2023-04-16T10:29:41;24.60;72.00
22680;DHT22;11507;44.858;10.374;2023-04-16T10:32:10;24.60;70.10
22680;DHT22;11507;44.858;10.374;2023-04-16T10:34:37;24.50;70.40
22680;DHT22;11507;44.858;10.374;2023-04-16T10:37:04;24.60;71.50
22680;DHT22;11507;44.858;10.374;2023-04-16T10:39:30;24.50;68.80
22680;DHT22;11507;44.858;10.374;2023-04-16T10:42:10;24.60;68.70
22680;DHT22;11507;44.858;10.374;2023-04-16T10:44:36;25.20;66.90
22680;DHT22;11507;44.858;10.374;2023-04-16T10:47:08;25.20;61.60
22680;DHT22;11507;44.858;10.374;2023-04-16T10:49:35;25.50;64.40
22680;DHT22;11507;44.858;10.374;2023-04-16T10:52:13;25.40;67.30
22680;DHT22;11507;44.858;10.374;2023-04-16T10:54:41;25.20;63.60
22680;DHT22;11507;44.858;10.374;2023-04-16T10:57:14;25.20;64.90
22680;DHT22;11507;44.858;10.374;2023-04-16T10:59:41;25.30;60.90
22680;DHT22;11507;44.858;10.374;2023-04-16T11:02:13;25.40;64.10
22680;DHT22;11507;44.858;10.374;2023-04-16T11:04:41;25.40;66.20
22680;DHT22;11507;44.858;10.374;2023-04-16T11:12:25;26.30;61.30
22680;DHT22;11507;44.858;10.374;2023-04-16T11:17:43;26.80;61.90
22680;DHT22;11507;44.858;10.374;2023-04-16T11:20:14;27.20;61.70
22680;DHT22;11507;44.858;10.374;2023-04-16T11:22:42;27.60;61.50
22680;DHT22;11507;44.858;10.374;2023-04-16T11:25:10;27.90;58.80
22680;DHT22;11507;44.858;10.374;2023-04-16T11:27:36;27.50;55.70
22680;DHT22;11507;44.858;10.374;2023-04-16T11:30:06;27.70;55.20
22680;DHT22;11507;44.858;10.374;2023-04-16T11:32:34;27.50;58.70
22680;DHT22;11507;44.858;10.374;2023-04-16T11:35:01;27.80;58.40
22680;DHT22;11507;44.858;10.374;2023-04-16T11:37:34;28.00;59.50
22680;DHT22;11507;44.858;10.374;2023-04-16T11:40:02;28.80;56.70
22680;DHT22;11507;44.858;10.374;2023-04-16T11:42:32;29.20;54.20
22680;DHT22;11507;44.858;10.374;2023-04-16T11:44:58;29.80;54.90
22680;DHT22;11507;44.858;10.374;2023-04-16T11:47:28;29.50;51.60
22680;DHT22;11507;44.858;10.374;2023-04-16T11:49:54;29.60;50.70
22680;DHT22;11507;44.858;10.374;2023-04-16T11:52:28;30.10;49.90
22680;DHT22;11507;44.858;10.374;2023-04-16T11:54:55;30.30;49.30
22680;DHT22;11507;44.858;10.374;2023-04-16T11:57:28;30.60;52.90
22680;DHT22;11507;44.858;10.374;2023-04-16T11:59:56;30.90;50.20
22680;DHT22;11507;44.858;10.374;2023-04-16T12:05:06;30.00;46.10
22680;DHT22;11507;44.858;10.374;2023-04-16T12:07:43;29.80;49.50
22680;DHT22;11507;44.858;10.374;2023-04-16T12:10:10;29.20;46.60
22680;DHT22;11507;44.858;10.374;2023-04-16T12:12:37;28.20;49.10
22680;DHT22;11507;44.858;10.374;2023-04-16T12:15:03;28.20;52.30
22680;DHT22;11507;44.858;10.374;2023-04-16T12:17:30;28.60;50.40
22680;DHT22;11507;44.858;10.374;2023-04-16T12:19:57;28.30;48.40
22680;DHT22;11507;44.858;10.374;2023-04-16T12:22:27;27.90;50.00
22680;DHT22;11507;44.858;10.374;2023-04-16T12:25:02;28.20;49.00
22680;DHT22;11507;44.858;10.374;2023-04-16T12:27:45;29.00;48.20
22680;DHT22;11507;44.858;10.374;2023-04-16T12:30:27;29.80;45.40
22680;DHT22;11507;44.858;10.374;2023-04-16T12:33:13;30.60;45.80
22680;DHT22;11507;44.858;10.374;2023-04-16T12:35:40;31.40;46.20
22680;DHT22;11507;44.858;10.374;2023-04-16T12:40:41;32.00;44.30
22680;DHT22;11507;44.858;10.374;2023-04-16T12:43:08;32.70;42.60
22680;DHT22;11507;44.858;10.374;2023-04-16T12:45:34;33.10;40.50
22680;DHT22;11507;44.858;10.374;2023-04-16T12:48:00;33.20;40.40
22680;DHT22;11507;44.858;10.374;2023-04-16T12:50:26;33.30;39.40
22680;DHT22;11507;44.858;10.374;2023-04-16T12:52:55;32.20;41.50
22680;DHT22;11507;44.858;10.374;2023-04-16T12:55:22;31.90;42.50
22680;DHT22;11507;44.858;10.374;2023-04-16T12:57:48;31.80;40.70
22680;DHT22;11507;44.858;10.374;2023-04-16T13:00:21;31.40;41.70
22680;DHT22;11507;44.858;10.374;2023-04-16T13:02:48;31.30;43.30
22680;DHT22;11507;44.858;10.374;2023-04-16T13:05:15;31.00;43.60
22680;DHT22;11507;44.858;10.374;2023-04-16T13:07:43;31.10;42.60
22680;DHT22;11507;44.858;10.374;2023-04-16T13:10:09;31.80;40.50
22680;DHT22;11507;44.858;10.374;2023-04-16T13:12:36;31.90;39.90
22680;DHT22;11507;44.858;10.374;2023-04-16T13:15:03;32.00;39.10
22680;DHT22;11507;44.858;10.374;2023-04-16T13:17:31;32.10;40.10
22680;DHT22;11507;44.858;10.374;2023-04-16T13:19:57;31.40;39.20
22680;DHT22;11507;44.858;10.374;2023-04-16T13:22:23;31.30;38.10
22680;DHT22;11507;44.858;10.374;2023-04-16T13:24:49;31.20;38.40
22680;DHT22;11507;44.858;10.374;2023-04-16T13:27:17;31.70;38.10
22680;DHT22;11507;44.858;10.374;2023-04-16T13:29:43;31.90;37.30
22680;DHT22;11507;44.858;10.374;2023-04-16T13:32:09;32.00;38.50
22680;DHT22;11507;44.858;10.374;2023-04-16T13:34:37;32.30;38.40
22680;DHT22;11507;44.858;10.374;2023-04-16T13:37:03;32.80;35.90
22680;DHT22;11507;44.858;10.374;2023-04-16T13:39:31;32.90;36.20
22680;DHT22;11507;44.858;10.374;2023-04-16T13:41:58;32.60;36.10
22680;DHT22;11507;44.858;10.374;2023-04-16T13:44:24;32.40;35.60
22680;DHT22;11507;44.858;10.374;2023-04-16T13:46:51;32.40;35.10
22680;DHT22;11507;44.858;10.374;2023-04-16T13:49:18;32.30;36.60
22680;DHT22;11507;44.858;10.374;2023-04-16T13:51:44;32.40;36.70
22680;DHT22;11507;44.858;10.374;2023-04-16T13:54:10;32.70;36.60
22680;DHT22;11507;44.858;10.374;2023-04-16T13:56:36;33.00;36.50
22680;DHT22;11507;44.858;10.374;2023-04-16T13:59:02;32.40;36.30
22680;DHT22;11507;44.858;10.374;2023-04-16T14:01:28;32.20;38.90
22680;DHT22;11507;44.858;10.374;2023-04-16T14:03:54;32.40;37.80
22680;DHT22;11507;44.858;10.374;2023-04-16T14:06:19;32.90;36.80
22680;DHT22;11507;44.858;10.374;2023-04-16T14:08:45;33.20;37.60
22680;DHT22;11507;44.858;10.374;2023-04-16T14:11:11;33.50;37.20
22680;DHT22;11507;44.858;10.374;2023-04-16T14:13:37;33.70;36.20
22680;DHT22;11507;44.858;10.374;2023-04-16T14:16:03;33.70;35.10
22680;DHT22;11507;44.858;10.374;2023-04-16T14:18:29;33.00;36.20
22680;DHT22;11507;44.858;10.374;2023-04-16T14:20:55;33.20;36.40
22680;DHT22;11507;44.858;10.374;2023-04-16T14:23:22;33.60;36.30
22680;DHT22;11507;44.858;10.374;2023-04-16T14:25:49;33.50;37.00
22680;DHT22;11507;44.858;10.374;2023-04-16T14:28:18;33.30;35.80
22680;DHT22;11507;44.858;10.374;2023-04-16T14:30:49;33.30;36.70
22680;DHT22;11507;44.858;10.374;2023-04-16T14:35:45;33.80;36.30
22680;DHT22;11507;44.858;10.374;2023-04-16T14:38:12;33.90;36.30
22680;DHT22;11507;44.858;10.374;2023-04-16T14:40:37;33.20;35.10
22680;DHT22;11507;44.858;10.374;2023-04-16T14:43:04;33.10;36.70
22680;DHT22;11507;44.858;10.374;2023-04-16T14:45:31;32.70;34.70
22680;DHT22;11507;44.858;10.374;2023-04-16T14:47:57;32.30;36.20
22680;DHT22;11507;44.858;10.374;2023-04-16T14:50:25;32.80;37.30
22680;DHT22;11507;44.858;10.374;2023-04-16T14:52:52;33.20;37.20
22680;DHT22;11507;44.858;10.374;2023-04-16T14:55:19;33.50;35.90
22680;DHT22;11507;44.858;10.374;2023-04-16T14:57:46;33.60;36.80
22680;DHT22;11507;44.858;10.374;2023-04-16T15:00:14;33.70;35.20
22680;DHT22;11507;44.858;10.374;2023-04-16T15:02:44;33.50;36.00
22680;DHT22;11507;44.858;10.374;2023-04-16T15:05:12;33.20;36.00
22680;DHT22;11507;44.858;10.374;2023-04-16T15:10:11;32.60;36.40
22680;DHT22;11507;44.858;10.374;2023-04-16T15:12:37;32.60;37.60
22680;DHT22;11507;44.858;10.374;2023-04-16T15:15:10;32.50;36.90
22680;DHT22;11507;44.858;10.374;2023-04-16T15:17:37;32.00;38.10
22680;DHT22;11507;44.858;10.374;2023-04-16T15:20:04;31.80;37.30
22680;DHT22;11507;44.858;10.374;2023-04-16T15:22:33;30.90;37.10
22680;DHT22;11507;44.858;10.374;2023-04-16T15:24:59;29.60;39.40
22680;DHT22;11507;44.858;10.374;2023-04-16T15:27:25;28.40;40.80
22680;DHT22;11507;44.858;10.374;2023-04-16T15:29:52;27.60;43.30
22680;DHT22;11507;44.858;10.374;2023-04-16T15:32:19;27.40;43.70
22680;DHT22;11507;44.858;10.374;2023-04-16T15:34:45;26.50;43.20
22680;DHT22;11507;44.858;10.374;2023-04-16T15:37:11;25.90;44.80
22680;DHT22;11507;44.858;10.374;2023-04-16T15:39:36;25.40;46.20
22680;DHT22;11507;44.858;10.374;2023-04-16T15:42:05;24.90;46.90